sensor_id;sensor_type;location;lat;lon;timestamp;P1;P2;P0
45700;PMS5003;36277;32.852;-116.998;2023-05-27T00:02:01;0.00;0.00;0.00
45700;PMS5003;36277;32.852;-116.998;2023-05-27T00:04:27;0.00;0.00;0.00
45700;PMS5003;36277;32.852;-116.998;2023-05-27T00:06:53;0.40;0.40;0.40
45700;PMS5003;36277;32.852;-116.998;2023-05-27T00:09:20;0.00;0.00;0.00
45700;PMS5003;36277;32.852;-116.998;2023-05-27T00:11:46;0.00;0.00;0.00
45700;PMS5003;36277;32.852;-116.998;2023-05-27T00:14:12;0.00;0.00;0.00
45700;PMS5003;36277;32.852;-116.998;2023-05-27T00:16:38;0.00;0.00;0.00
45700;PMS5003;36277;32.852;-116.998;2023-05-27T00:19:07;0.00;0.00;0.00
45700;PMS5003;36277;32.852;-116.998;2023-05-27T00:21:34;0.00;0.00;0.00
45700;PMS5003;36277;32.852;-116.998;2023-05-27T00:24:00;0.00;0.00;0.00
45700;PMS5003;36277;32.852;-116.998;2023-05-27T00:26:27;0.00;0.00;0.00
45700;PMS5003;36277;32.852;-116.998;2023-05-27T00:28:58;0.00;0.00;0.00
45700;PMS5003;36277;32.852;-116.998;2023-05-27T00:31:27;0.00;0.00;0.00
45700;PMS5003;36277;32.852;-116.998;2023-05-27T00:33:54;0.00;0.00;0.00
45700;PMS5003;36277;32.852;-116.998;2023-05-27T00:36:23;0.00;0.00;0.00
45700;PMS5003;36277;32.852;-116.998;2023-05-27T00:38:49;0.00;0.00;0.00
45700;PMS5003;36277;32.852;-116.998;2023-05-27T00:41:19;0.00;0.00;0.00
45700;PMS5003;36277;32.852;-116.998;2023-05-27T00:43:48;0.00;0.00;0.00
45700;PMS5003;36277;32.852;-116.998;2023-05-27T00:46:20;0.00;0.00;0.00
45700;PMS5003;36277;32.852;-116.998;2023-05-27T00:48:46;0.00;0.00;0.00
45700;PMS5003;36277;32.852;-116.998;2023-05-27T00:51:14;0.00;0.00;0.00
45700;PMS5003;36277;32.852;-116.998;2023-05-27T00:53:42;0.00;0.00;0.00
45700;PMS5003;36277;32.852;-116.998;2023-05-27T00:56:20;0.00;0.00;0.00
45700;PMS5003;36277;32.852;-116.998;2023-05-27T00:58:55;0.00;0.00;0.00
45700;PMS5003;36277;32.852;-116.998;2023-05-27T01:01:29;0.00;0.00;0.00
45700;PMS5003;36277;32.852;-116.998;2023-05-27T01:04:10;0.00;0.00;0.00
45700;PMS5003;36277;32.852;-116.998;2023-05-27T01:09:42;0.00;0.00;0.00
45700;PMS5003;36277;32.852;-116.998;2023-05-27T01:12:18;0.00;0.00;0.00
45700;PMS5003;36277;32.852;-116.998;2023-05-27T01:15:07;0.00;0.00;0.00
45700;PMS5003;36277;32.852;-116.998;2023-05-27T01:17:35;0.00;0.00;0.00
45700;PMS5003;36277;32.852;-116.998;2023-05-27T01:20:03;0.00;0.00;0.00
45700;PMS5003;36277;32.852;-116.998;2023-05-27T01:22:31;0.00;0.00;0.00
45700;PMS5003;36277;32.852;-116.998;2023-05-27T01:24:57;2.00;2.00;1.60
45700;PMS5003;36277;32.852;-116.998;2023-05-27T01:27:24;3.00;3.00;2.00
45700;PMS5003;36277;32.852;-116.998;2023-05-27T01:29:50;3.40;3.40;2.40
45700;PMS5003;36277;32.852;-116.998;2023-05-27T01:32:32;2.20;2.20;2.00
45700;PMS5003;36277;32.852;-116.998;2023-05-27T01:35:20;4.00;4.00;3.00
45700;PMS5003;36277;32.852;-116.998;2023-05-27T01:37:54;8.80;8.80;5.00
45700;PMS5003;36277;32.852;-116.998;2023-05-27T01:40:21;5.80;5.80;4.20
45700;PMS5003;36277;32.852;-116.998;2023-05-27T01:42:52;5.60;5.60;4.40
45700;PMS5003;36277;32.852;-116.998;2023-05-27T01:45:22;3.20;3.20;2.60
45700;PMS5003;36277;32.852;-116.998;2023-05-27T01:47:51;3.40;3.40;2.40
45700;PMS5003;36277;32.852;-116.998;2023-05-27T01:50:17;2.80;2.80;2.40
45700;PMS5003;36277;32.852;-116.998;2023-05-27T01:52:44;2.00;2.00;1.00
45700;PMS5003;36277;32.852;-116.998;2023-05-27T01:55:10;1.00;1.00;1.00
45700;PMS5003;36277;32.852;-116.998;2023-05-27T01:57:37;2.00;2.00;1.80
45700;PMS5003;36277;32.852;-116.998;2023-05-27T02:00:03;2.00;2.00;1.20
45700;PMS5003;36277;32.852;-116.998;2023-05-27T02:02:34;3.00;3.00;2.00
45700;PMS5003;36277;32.852;-116.998;2023-05-27T02:05:26;2.00;2.00;1.20
45700;PMS5003;36277;32.852;-116.998;2023-05-27T02:07:53;2.00;2.00;1.40
45700;PMS5003;36277;32.852;-116.998;2023-05-27T02:10:19;1.00;1.00;1.00
45700;PMS5003;36277;32.852;-116.998;2023-05-27T02:12:45;1.80;1.80;1.60
45700;PMS5003;36277;32.852;-116.998;2023-05-27T02:15:13;1.00;1.00;1.00
45700;PMS5003;36277;32.852;-116.998;2023-05-27T02:17:39;1.20;1.20;1.00
45700;PMS5003;36277;32.852;-116.998;2023-05-27T02:20:06;1.00;1.00;1.00
45700;PMS5003;36277;32.852;-116.998;2023-05-27T02:22:32;1.00;1.00;1.00
45700;PMS5003;36277;32.852;-116.998;2023-05-27T02:24:58;106.60;106.60;91.60
45700;PMS5003;36277;32.852;-116.998;2023-05-27T02:27:26;159.75;159.75;138.25
45700;PMS5003;36277;32.852;-116.998;2023-05-27T02:29:52;156.75;156.75;136.75
45700;PMS5003;36277;32.852;-116.998;2023-05-27T02:32:18;153.67;153.67;138.33
45700;PMS5003;36277;32.852;-116.998;2023-05-27T02:34:45;135.25;134.75;120.25
45700;PMS5003;36277;32.852;-116.998;2023-05-27T02:37:11;98.75;98.25;89.25
45700;PMS5003;36277;32.852;-116.998;2023-05-27T02:39:38;73.00;65.80;59.00
45700;PMS5003;36277;32.852;-116.998;2023-05-27T02:42:05;72.80;64.60;57.80
45700;PMS5003;36277;32.852;-116.998;2023-05-27T02:44:32;77.80;74.80;64.60
45700;PMS5003;36277;32.852;-116.998;2023-05-27T02:46:58;76.80;73.00;64.60
45700;PMS5003;36277;32.852;-116.998;2023-05-27T02:49:24;73.80;67.20;59.40
45700;PMS5003;36277;32.852;-116.998;2023-05-27T02:51:51;79.00;76.60;68.20
45700;PMS5003;36277;32.852;-116.998;2023-05-27T02:54:17;78.40;76.20;69.20
45700;PMS5003;36277;32.852;-116.998;2023-05-27T02:56:43;74.40;68.40;65.20
45700;PMS5003;36277;32.852;-116.998;2023-05-27T02:59:10;105.25;105.00;96.00
45700;PMS5003;36277;32.852;-116.998;2023-05-27T03:01:36;90.75;90.75;80.75
45700;PMS5003;36277;32.852;-116.998;2023-05-27T03:04:02;99.25;99.00;91.00
45700;PMS5003;36277;32.852;-116.998;2023-05-27T03:06:29;76.20;71.80;64.40
45700;PMS5003;36277;32.852;-116.998;2023-05-27T03:09:03;73.80;67.40;59.00
45700;PMS5003;36277;32.852;-116.998;2023-05-27T03:11:29;74.60;68.20;59.80
45700;PMS5003;36277;32.852;-116.998;2023-05-27T03:13:55;74.40;68.60;62.20
45700;PMS5003;36277;32.852;-116.998;2023-05-27T03:16:22;74.00;67.80;61.00
45700;PMS5003;36277;32.852;-116.998;2023-05-27T03:18:48;76.80;73.00;66.40
45700;PMS5003;36277;32.852;-116.998;2023-05-27T03:21:14;81.40;81.40;73.80
45700;PMS5003;36277;32.852;-116.998;2023-05-27T03:23:41;71.80;63.80;58.80
45700;PMS5003;36277;32.852;-116.998;2023-05-27T03:26:07;72.20;65.00;59.20
45700;PMS5003;36277;32.852;-116.998;2023-05-27T03:28:33;72.60;65.20;58.60
45700;PMS5003;36277;32.852;-116.998;2023-05-27T03:31:00;66.80;56.60;52.80
45700;PMS5003;36277;32.852;-116.998;2023-05-27T03:33:26;67.40;57.00;53.00
45700;PMS5003;36277;32.852;-116.998;2023-05-27T03:35:52;68.20;58.40;53.20
45700;PMS5003;36277;32.852;-116.998;2023-05-27T03:38:21;66.00;55.00;48.60
45700;PMS5003;36277;32.852;-116.998;2023-05-27T03:40:47;67.60;58.20;53.20
45700;PMS5003;36277;32.852;-116.998;2023-05-27T03:43:13;63.80;52.80;47.00
45700;PMS5003;36277;32.852;-116.998;2023-05-27T03:45:39;63.80;52.40;47.00
45700;PMS5003;36277;32.852;-116.998;2023-05-27T03:48:05;64.60;53.00;48.20
45700;PMS5003;36277;32.852;-116.998;2023-05-27T03:50:32;73.60;67.00;55.20
45700;PMS5003;36277;32.852;-116.998;2023-05-27T03:52:59;66.00;55.00;49.40
45700;PMS5003;36277;32.852;-116.998;2023-05-27T03:55:25;63.40;52.40;47.80
45700;PMS5003;36277;32.852;-116.998;2023-05-27T03:57:54;62.40;52.00;45.80
45700;PMS5003;36277;32.852;-116.998;2023-05-27T04:00:20;60.80;50.20;42.20
45700;PMS5003;36277;32.852;-116.998;2023-05-27T04:02:47;59.20;49.40;42.60
45700;PMS5003;36277;32.852;-116.998;2023-05-27T04:05:13;61.80;50.80;45.20
45700;PMS5003;36277;32.852;-116.998;2023-05-27T04:07:42;61.20;50.40;42.60
45700;PMS5003;36277;32.852;-116.998;2023-05-27T04:10:08;61.60;50.60;43.80
45700;PMS5003;36277;32.852;-116.998;2023-05-27T04:12:35;54.60;46.00;36.80
45700;PMS5003;36277;32.852;-116.998;2023-05-27T04:15:01;52.80;44.80;36.00
45700;PMS5003;36277;32.852;-116.998;2023-05-27T04:17:28;60.00;49.40;42.00
45700;PMS5003;36277;32.852;-116.998;2023-05-27T04:19:54;56.60;47.60;39.20
45700;PMS5003;36277;32.852;-116.998;2023-05-27T04:22:21;52.25;44.25;34.00
45700;PMS5003;36277;32.852;-116.998;2023-05-27T04:24:47;49.50;42.50;33.50
45700;PMS5003;36277;32.852;-116.998;2023-05-27T04:27:14;51.00;44.00;34.00
45700;PMS5003;36277;32.852;-116.998;2023-05-27T04:29:42;46.75;39.75;31.50
45700;PMS5003;36277;32.852;-116.998;2023-05-27T04:32:11;51.50;43.50;34.75
45700;PMS5003;36277;32.852;-116.998;2023-05-27T04:34:37;53.00;45.00;34.50
45700;PMS5003;36277;32.852;-116.998;2023-05-27T04:37:06;52.00;44.00;34.00
45700;PMS5003;36277;32.852;-116.998;2023-05-27T04:39:35;54.25;45.50;37.00
45700;PMS5003;36277;32.852;-116.998;2023-05-27T04:42:01;52.00;44.00;34.00
45700;PMS5003;36277;32.852;-116.998;2023-05-27T04:44:28;51.25;43.50;33.75
45700;PMS5003;36277;32.852;-116.998;2023-05-27T04:46:55;51.75;43.50;34.75
45700;PMS5003;36277;32.852;-116.998;2023-05-27T04:49:21;48.50;41.50;32.50
45700;PMS5003;36277;32.852;-116.998;2023-05-27T04:51:47;51.00;43.50;35.00
45700;PMS5003;36277;32.852;-116.998;2023-05-27T04:54:14;53.00;45.00;35.00
45700;PMS5003;36277;32.852;-116.998;2023-05-27T04:56:40;51.25;43.50;33.50
45700;PMS5003;36277;32.852;-116.998;2023-05-27T04:59:06;49.75;42.75;33.00
45700;PMS5003;36277;32.852;-116.998;2023-05-27T05:01:42;47.00;40.50;32.00
45700;PMS5003;36277;32.852;-116.998;2023-05-27T05:04:34;48.25;41.25;33.25
45700;PMS5003;36277;32.852;-116.998;2023-05-27T05:07:02;50.00;43.00;33.50
45700;PMS5003;36277;32.852;-116.998;2023-05-27T05:09:29;47.75;41.00;33.00
45700;PMS5003;36277;32.852;-116.998;2023-05-27T05:11:55;49.50;42.50;33.50
45700;PMS5003;36277;32.852;-116.998;2023-05-27T05:14:21;46.50;40.50;31.50
45700;PMS5003;36277;32.852;-116.998;2023-05-27T05:16:48;46.25;39.75;30.75
45700;PMS5003;36277;32.852;-116.998;2023-05-27T05:19:14;46.50;40.00;32.00
45700;PMS5003;36277;32.852;-116.998;2023-05-27T05:21:40;46.00;40.00;31.25
45700;PMS5003;36277;32.852;-116.998;2023-05-27T05:24:06;46.75;40.00;31.25
45700;PMS5003;36277;32.852;-116.998;2023-05-27T05:26:33;44.25;38.25;30.50
45700;PMS5003;36277;32.852;-116.998;2023-05-27T05:28:59;46.00;39.25;31.25
45700;PMS5003;36277;32.852;-116.998;2023-05-27T05:31:25;46.75;41.00;31.75
45700;PMS5003;36277;32.852;-116.998;2023-05-27T05:33:51;46.75;40.75;32.25
45700;PMS5003;36277;32.852;-116.998;2023-05-27T05:36:18;44.50;38.75;30.75
45700;PMS5003;36277;32.852;-116.998;2023-05-27T05:38:46;40.75;36.00;28.75
45700;PMS5003;36277;32.852;-116.998;2023-05-27T05:41:12;45.25;39.25;31.00
45700;PMS5003;36277;32.852;-116.998;2023-05-27T05:43:38;42.00;36.75;28.75
45700;PMS5003;36277;32.852;-116.998;2023-05-27T05:46:05;42.25;37.25;30.00
45700;PMS5003;36277;32.852;-116.998;2023-05-27T05:48:31;45.00;39.00;30.50
45700;PMS5003;36277;32.852;-116.998;2023-05-27T05:50:57;42.25;37.25;29.25
45700;PMS5003;36277;32.852;-116.998;2023-05-27T05:53:26;39.50;35.25;28.00
45700;PMS5003;36277;32.852;-116.998;2023-05-27T05:55:53;43.25;38.00;30.75
45700;PMS5003;36277;32.852;-116.998;2023-05-27T05:58:20;38.00;35.00;28.00
45700;PMS5003;36277;32.852;-116.998;2023-05-27T06:00:46;39.00;35.25;28.50
45700;PMS5003;36277;32.852;-116.998;2023-05-27T06:03:12;41.75;36.75;29.25
45700;PMS5003;36277;32.852;-116.998;2023-05-27T06:05:38;40.50;36.00;28.00
45700;PMS5003;36277;32.852;-116.998;2023-05-27T06:08:04;40.25;35.75;27.75
45700;PMS5003;36277;32.852;-116.998;2023-05-27T06:10:31;38.25;35.00;28.25
45700;PMS5003;36277;32.852;-116.998;2023-05-27T06:12:57;38.25;35.00;28.00
45700;PMS5003;36277;32.852;-116.998;2023-05-27T06:15:23;36.75;33.75;27.75
45700;PMS5003;36277;32.852;-116.998;2023-05-27T06:17:50;38.50;35.00;28.00
45700;PMS5003;36277;32.852;-116.998;2023-05-27T06:20:18;42.50;38.75;31.00
45700;PMS5003;36277;32.852;-116.998;2023-05-27T06:22:45;36.50;33.50;27.25
45700;PMS5003;36277;32.852;-116.998;2023-05-27T06:25:14;36.50;33.50;27.00
45700;PMS5003;36277;32.852;-116.998;2023-05-27T06:27:40;36.75;33.75;28.00
45700;PMS5003;36277;32.852;-116.998;2023-05-27T06:30:07;31.25;30.25;25.00
45700;PMS5003;36277;32.852;-116.998;2023-05-27T06:32:34;37.25;34.25;28.00
45700;PMS5003;36277;32.852;-116.998;2023-05-27T06:35:00;34.00;32.00;26.00
45700;PMS5003;36277;32.852;-116.998;2023-05-27T06:37:26;34.00;32.25;26.25
45700;PMS5003;36277;32.852;-116.998;2023-05-27T06:39:56;33.25;31.75;26.00
45700;PMS5003;36277;32.852;-116.998;2023-05-27T06:42:22;34.00;32.00;26.75
45700;PMS5003;36277;32.852;-116.998;2023-05-27T06:44:48;29.50;29.25;23.50
45700;PMS5003;36277;32.852;-116.998;2023-05-27T06:47:15;32.00;31.00;25.75
45700;PMS5003;36277;32.852;-116.998;2023-05-27T06:49:41;31.75;30.75;25.50
45700;PMS5003;36277;32.852;-116.998;2023-05-27T06:52:08;29.75;29.75;24.00
45700;PMS5003;36277;32.852;-116.998;2023-05-27T06:54:34;35.75;33.50;27.50
45700;PMS5003;36277;32.852;-116.998;2023-05-27T06:57:01;31.25;30.25;26.00
45700;PMS5003;36277;32.852;-116.998;2023-05-27T06:59:28;33.50;32.00;26.00
45700;PMS5003;36277;32.852;-116.998;2023-05-27T07:01:54;28.25;28.25;23.25
45700;PMS5003;36277;32.852;-116.998;2023-05-27T07:04:24;32.25;31.25;26.00
45700;PMS5003;36277;32.852;-116.998;2023-05-27T07:06:50;27.50;27.50;23.00
45700;PMS5003;36277;32.852;-116.998;2023-05-27T07:09:16;28.50;28.50;23.25
45700;PMS5003;36277;32.852;-116.998;2023-05-27T07:11:43;25.75;25.75;22.00
45700;PMS5003;36277;32.852;-116.998;2023-05-27T07:14:09;29.75;29.50;24.25
45700;PMS5003;36277;32.852;-116.998;2023-05-27T07:16:38;26.75;26.75;23.00
45700;PMS5003;36277;32.852;-116.998;2023-05-27T07:19:05;26.20;26.20;23.00
45700;PMS5003;36277;32.852;-116.998;2023-05-27T07:21:35;30.75;30.25;24.25
45700;PMS5003;36277;32.852;-116.998;2023-05-27T07:24:01;25.75;25.75;22.75
45700;PMS5003;36277;32.852;-116.998;2023-05-27T07:26:29;25.80;25.80;22.00
45700;PMS5003;36277;32.852;-116.998;2023-05-27T07:28:59;25.40;25.40;22.40
45700;PMS5003;36277;32.852;-116.998;2023-05-27T07:31:27;28.20;28.20;23.40
45700;PMS5003;36277;32.852;-116.998;2023-05-27T07:33:54;24.80;24.80;21.60
45700;PMS5003;36277;32.852;-116.998;2023-05-27T07:36:20;28.80;28.80;23.00
45700;PMS5003;36277;32.852;-116.998;2023-05-27T07:38:47;27.40;27.40;23.00
45700;PMS5003;36277;32.852;-116.998;2023-05-27T07:41:13;20.20;20.20;19.40
45700;PMS5003;36277;32.852;-116.998;2023-05-27T07:43:40;27.00;27.00;22.25
45700;PMS5003;36277;32.852;-116.998;2023-05-27T07:46:06;25.60;25.60;21.80
45700;PMS5003;36277;32.852;-116.998;2023-05-27T07:48:32;21.80;21.80;20.00
45700;PMS5003;36277;32.852;-116.998;2023-05-27T07:50:59;25.40;25.40;22.00
45700;PMS5003;36277;32.852;-116.998;2023-05-27T07:53:25;25.00;25.00;22.00
45700;PMS5003;36277;32.852;-116.998;2023-05-27T07:55:51;24.20;24.20;22.00
45700;PMS5003;36277;32.852;-116.998;2023-05-27T07:58:17;23.00;23.00;20.40
45700;PMS5003;36277;32.852;-116.998;2023-05-27T08:00:44;25.00;25.00;21.00
45700;PMS5003;36277;32.852;-116.998;2023-05-27T08:03:10;23.20;23.20;20.80
45700;PMS5003;36277;32.852;-116.998;2023-05-27T08:05:36;22.00;22.00;20.40
45700;PMS5003;36277;32.852;-116.998;2023-05-27T08:08:03;25.00;25.00;21.60
45700;PMS5003;36277;32.852;-116.998;2023-05-27T08:10:29;23.00;23.00;20.60
45700;PMS5003;36277;32.852;-116.998;2023-05-27T08:12:56;21.80;21.80;20.00
45700;PMS5003;36277;32.852;-116.998;2023-05-27T08:15:22;21.60;21.60;19.60
45700;PMS5003;36277;32.852;-116.998;2023-05-27T08:17:48;22.80;22.80;20.20
45700;PMS5003;36277;32.852;-116.998;2023-05-27T08:20:14;23.80;23.80;21.00
45700;PMS5003;36277;32.852;-116.998;2023-05-27T08:22:41;24.80;24.80;21.60
45700;PMS5003;36277;32.852;-116.998;2023-05-27T08:25:08;23.00;23.00;20.80
45700;PMS5003;36277;32.852;-116.998;2023-05-27T08:30:17;21.20;21.20;20.00
45700;PMS5003;36277;32.852;-116.998;2023-05-27T08:32:44;20.60;20.60;19.40
45700;PMS5003;36277;32.852;-116.998;2023-05-27T08:35:11;22.20;22.20;20.00
45700;PMS5003;36277;32.852;-116.998;2023-05-27T08:37:38;22.80;22.80;20.40
45700;PMS5003;36277;32.852;-116.998;2023-05-27T08:40:06;20.60;20.60;19.20
45700;PMS5003;36277;32.852;-116.998;2023-05-27T08:42:36;21.80;21.80;19.00
45700;PMS5003;36277;32.852;-116.998;2023-05-27T08:45:02;17.80;17.80;17.00
45700;PMS5003;36277;32.852;-116.998;2023-05-27T08:47:29;20.40;20.40;19.80
45700;PMS5003;36277;32.852;-116.998;2023-05-27T08:49:58;16.20;16.20;15.20
45700;PMS5003;36277;32.852;-116.998;2023-05-27T08:52:27;20.20;20.20;18.60
45700;PMS5003;36277;32.852;-116.998;2023-05-27T08:54:54;20.60;20.60;18.60
45700;PMS5003;36277;32.852;-116.998;2023-05-27T08:57:22;17.20;17.20;16.20
45700;PMS5003;36277;32.852;-116.998;2023-05-27T08:59:53;20.80;20.80;19.80
45700;PMS5003;36277;32.852;-116.998;2023-05-27T09:02:20;19.00;19.00;18.00
45700;PMS5003;36277;32.852;-116.998;2023-05-27T09:04:47;14.80;14.80;14.20
45700;PMS5003;36277;32.852;-116.998;2023-05-27T09:07:15;18.80;18.80;17.20
45700;PMS5003;36277;32.852;-116.998;2023-05-27T09:09:41;20.40;20.40;18.00
45700;PMS5003;36277;32.852;-116.998;2023-05-27T09:12:08;18.00;18.00;16.00
45700;PMS5003;36277;32.852;-116.998;2023-05-27T09:14:35;19.60;19.60;18.00
45700;PMS5003;36277;32.852;-116.998;2023-05-27T09:17:05;19.40;19.40;17.60
45700;PMS5003;36277;32.852;-116.998;2023-05-27T09:19:32;18.40;18.20;16.80
45700;PMS5003;36277;32.852;-116.998;2023-05-27T09:21:59;18.00;18.00;16.00
45700;PMS5003;36277;32.852;-116.998;2023-05-27T09:24:26;18.40;18.40;16.80
45700;PMS5003;36277;32.852;-116.998;2023-05-27T09:26:53;19.60;19.60;17.20
45700;PMS5003;36277;32.852;-116.998;2023-05-27T09:29:24;18.20;18.20;16.20
45700;PMS5003;36277;32.852;-116.998;2023-05-27T09:31:54;18.00;18.00;15.80
45700;PMS5003;36277;32.852;-116.998;2023-05-27T09:34:21;20.40;20.40;18.60
45700;PMS5003;36277;32.852;-116.998;2023-05-27T09:36:48;17.20;17.20;15.60
45700;PMS5003;36277;32.852;-116.998;2023-05-27T09:39:21;19.80;19.80;18.40
45700;PMS5003;36277;32.852;-116.998;2023-05-27T09:41:54;19.60;19.60;17.60
45700;PMS5003;36277;32.852;-116.998;2023-05-27T09:44:28;15.20;15.20;14.00
45700;PMS5003;36277;32.852;-116.998;2023-05-27T09:46:58;17.60;17.60;15.80
45700;PMS5003;36277;32.852;-116.998;2023-05-27T09:49:27;16.00;16.00;14.00
45700;PMS5003;36277;32.852;-116.998;2023-05-27T09:51:57;17.40;17.40;15.60
45700;PMS5003;36277;32.852;-116.998;2023-05-27T09:54:25;17.00;17.00;14.60
45700;PMS5003;36277;32.852;-116.998;2023-05-27T09:56:52;15.80;15.80;15.00
45700;PMS5003;36277;32.852;-116.998;2023-05-27T09:59:18;15.60;15.60;14.80
45700;PMS5003;36277;32.852;-116.998;2023-05-27T10:01:45;16.20;16.20;14.60
45700;PMS5003;36277;32.852;-116.998;2023-05-27T10:04:15;16.40;16.40;15.20
45700;PMS5003;36277;32.852;-116.998;2023-05-27T10:06:47;17.00;17.00;15.00
45700;PMS5003;36277;32.852;-116.998;2023-05-27T10:09:14;14.00;14.00;12.00
45700;PMS5003;36277;32.852;-116.998;2023-05-27T10:11:41;16.00;16.00;13.80
45700;PMS5003;36277;32.852;-116.998;2023-05-27T10:14:10;18.00;18.00;16.00
45700;PMS5003;36277;32.852;-116.998;2023-05-27T10:16:37;14.60;14.60;13.20
45700;PMS5003;36277;32.852;-116.998;2023-05-27T10:19:08;16.00;16.00;14.60
45700;PMS5003;36277;32.852;-116.998;2023-05-27T10:21:41;14.80;14.80;13.00
45700;PMS5003;36277;32.852;-116.998;2023-05-27T10:24:10;12.60;12.60;12.00
45700;PMS5003;36277;32.852;-116.998;2023-05-27T10:26:40;16.00;16.00;13.80
45700;PMS5003;36277;32.852;-116.998;2023-05-27T10:29:09;14.60;14.60;12.60
45700;PMS5003;36277;32.852;-116.998;2023-05-27T10:31:46;14.40;14.40;13.80
45700;PMS5003;36277;32.852;-116.998;2023-05-27T10:34:13;15.60;15.60;14.40
45700;PMS5003;36277;32.852;-116.998;2023-05-27T10:36:40;15.20;15.20;13.20
45700;PMS5003;36277;32.852;-116.998;2023-05-27T10:39:17;14.60;14.60;13.00
45700;PMS5003;36277;32.852;-116.998;2023-05-27T10:41:54;13.00;13.00;12.20
45700;PMS5003;36277;32.852;-116.998;2023-05-27T10:44:46;13.20;13.20;12.40
45700;PMS5003;36277;32.852;-116.998;2023-05-27T10:47:12;10.20;10.20;10.00
45700;PMS5003;36277;32.852;-116.998;2023-05-27T10:49:39;13.80;13.80;12.60
45700;PMS5003;36277;32.852;-116.998;2023-05-27T10:52:13;9.40;9.40;8.00
45700;PMS5003;36277;32.852;-116.998;2023-05-27T10:54:44;10.60;10.60;10.60
45700;PMS5003;36277;32.852;-116.998;2023-05-27T10:57:12;10.20;10.20;10.00
45700;PMS5003;36277;32.852;-116.998;2023-05-27T10:59:48;13.80;13.80;12.00
45700;PMS5003;36277;32.852;-116.998;2023-05-27T11:02:19;10.00;10.00;9.80
45700;PMS5003;36277;32.852;-116.998;2023-05-27T11:04:46;11.40;11.40;10.20
45700;PMS5003;36277;32.852;-116.998;2023-05-27T11:07:20;11.80;11.80;11.60
45700;PMS5003;36277;32.852;-116.998;2023-05-27T11:09:48;13.00;13.00;11.40
45700;PMS5003;36277;32.852;-116.998;2023-05-27T11:12:16;13.00;13.00;11.60
45700;PMS5003;36277;32.852;-116.998;2023-05-27T11:14:56;14.00;14.00;13.00
45700;PMS5003;36277;32.852;-116.998;2023-05-27T11:17:22;11.40;11.40;10.60
45700;PMS5003;36277;32.852;-116.998;2023-05-27T11:19:50;12.20;12.20;11.40
45700;PMS5003;36277;32.852;-116.998;2023-05-27T11:22:17;11.00;11.00;10.40
45700;PMS5003;36277;32.852;-116.998;2023-05-27T11:25:00;13.80;13.80;12.00
45700;PMS5003;36277;32.852;-116.998;2023-05-27T11:27:34;11.60;11.60;10.40
45700;PMS5003;36277;32.852;-116.998;2023-05-27T11:30:11;11.40;11.40;10.60
45700;PMS5003;36277;32.852;-116.998;2023-05-27T11:32:39;10.60;10.60;9.80
45700;PMS5003;36277;32.852;-116.998;2023-05-27T11:35:17;11.00;11.00;10.00
45700;PMS5003;36277;32.852;-116.998;2023-05-27T11:37:50;12.00;12.00;11.00
45700;PMS5003;36277;32.852;-116.998;2023-05-27T11:40:17;11.00;11.00;10.60
45700;PMS5003;36277;32.852;-116.998;2023-05-27T11:42:44;9.40;9.40;8.60
45700;PMS5003;36277;32.852;-116.998;2023-05-27T11:45:18;11.20;11.20;11.00
45700;PMS5003;36277;32.852;-116.998;2023-05-27T11:47:45;8.00;8.00;8.00
45700;PMS5003;36277;32.852;-116.998;2023-05-27T11:50:17;12.00;12.00;10.80
45700;PMS5003;36277;32.852;-116.998;2023-05-27T11:52:54;11.00;11.00;10.20
45700;PMS5003;36277;32.852;-116.998;2023-05-27T11:55:25;10.00;10.00;9.00
45700;PMS5003;36277;32.852;-116.998;2023-05-27T11:57:51;9.60;9.60;8.60
45700;PMS5003;36277;32.852;-116.998;2023-05-27T12:00:17;9.00;9.00;9.00
45700;PMS5003;36277;32.852;-116.998;2023-05-27T12:02:44;9.40;9.40;8.60
45700;PMS5003;36277;32.852;-116.998;2023-05-27T12:05:11;11.80;11.80;11.00
45700;PMS5003;36277;32.852;-116.998;2023-05-27T12:07:37;12.40;12.40;11.80
45700;PMS5003;36277;32.852;-116.998;2023-05-27T12:10:08;10.00;10.00;9.00
45700;PMS5003;36277;32.852;-116.998;2023-05-27T12:12:34;11.20;11.20;10.60
45700;PMS5003;36277;32.852;-116.998;2023-05-27T12:15:02;10.80;10.80;10.00
45700;PMS5003;36277;32.852;-116.998;2023-05-27T12:17:29;6.00;6.00;3.60
45700;PMS5003;36277;32.852;-116.998;2023-05-27T12:19:55;9.80;9.80;9.00
45700;PMS5003;36277;32.852;-116.998;2023-05-27T12:22:22;8.20;8.20;7.80
45700;PMS5003;36277;32.852;-116.998;2023-05-27T12:24:48;8.40;8.40;8.00
45700;PMS5003;36277;32.852;-116.998;2023-05-27T12:27:17;9.00;9.00;8.00
45700;PMS5003;36277;32.852;-116.998;2023-05-27T12:29:45;9.60;9.60;8.40
45700;PMS5003;36277;32.852;-116.998;2023-05-27T12:32:11;9.00;9.00;8.00
45700;PMS5003;36277;32.852;-116.998;2023-05-27T12:34:38;8.40;8.40;8.00
45700;PMS5003;36277;32.852;-116.998;2023-05-27T12:37:04;7.60;7.60;7.40
45700;PMS5003;36277;32.852;-116.998;2023-05-27T12:39:30;7.00;7.00;7.00
45700;PMS5003;36277;32.852;-116.998;2023-05-27T12:41:57;8.40;8.40;8.20
45700;PMS5003;36277;32.852;-116.998;2023-05-27T12:44:23;10.00;10.00;9.00
45700;PMS5003;36277;32.852;-116.998;2023-05-27T12:46:49;6.40;6.40;6.40
45700;PMS5003;36277;32.852;-116.998;2023-05-27T12:49:15;7.00;7.00;6.60
45700;PMS5003;36277;32.852;-116.998;2023-05-27T12:51:41;7.80;7.80;7.40
45700;PMS5003;36277;32.852;-116.998;2023-05-27T12:54:08;9.00;9.00;8.00
45700;PMS5003;36277;32.852;-116.998;2023-05-27T12:56:34;4.40;4.40;4.00
45700;PMS5003;36277;32.852;-116.998;2023-05-27T12:59:00;5.60;5.60;5.40
45700;PMS5003;36277;32.852;-116.998;2023-05-27T13:01:26;6.80;6.80;6.00
45700;PMS5003;36277;32.852;-116.998;2023-05-27T13:03:54;4.80;4.80;4.80
45700;PMS5003;36277;32.852;-116.998;2023-05-27T13:06:21;5.00;5.00;4.00
45700;PMS5003;36277;32.852;-116.998;2023-05-27T13:08:48;4.80;4.80;4.20
45700;PMS5003;36277;32.852;-116.998;2023-05-27T13:11:14;3.00;3.00;3.00
45700;PMS5003;36277;32.852;-116.998;2023-05-27T13:13:41;3.00;3.00;3.00
45700;PMS5003;36277;32.852;-116.998;2023-05-27T13:16:08;2.40;2.40;2.40
45700;PMS5003;36277;32.852;-116.998;2023-05-27T13:18:34;2.00;2.00;2.00
45700;PMS5003;36277;32.852;-116.998;2023-05-27T13:21:02;2.00;2.00;2.00
45700;PMS5003;36277;32.852;-116.998;2023-05-27T13:23:28;2.00;2.00;2.00
45700;PMS5003;36277;32.852;-116.998;2023-05-27T13:25:55;3.40;3.40;3.00
45700;PMS5003;36277;32.852;-116.998;2023-05-27T13:28:21;2.00;2.00;2.00
45700;PMS5003;36277;32.852;-116.998;2023-05-27T13:30:47;2.00;2.00;2.00
45700;PMS5003;36277;32.852;-116.998;2023-05-27T13:33:14;1.60;1.60;1.60